Elat'Ma, Russia
Current Conditions -  °F | °C
As of 1:00 PM on Tuesday 21 Oct 2014 (Local Time) from UWGG Reporting Station
Light Snow Light Snow  
Wind Chill: 24°   Ceiling: 1200
Heat Index: 32°   Visibility: 5mi
Dew Point: 30°   Wind: 9mph
Humidity: 93%   Direction: 100°E
Pressure: 29.41"   Gusts: NA
Location:  54.95°N, 41.77°E
Report Text: UWGG 211000Z 10004MPS 8000 -SN OVC012 00/M01 Q0996 NOSIG18290050 RMK QFE740
Loading
Personal Weather Stations






























Interactive Weather Map
Tropical Storm Tracking
New forecast layout! Learn more

10-Day Weather Forecast

Advertisements
Track Severe Weather on mobile